Date,TemperatureHighF,TemperatureAvgF,TemperatureLowF,DewpointHighF,DewpointAvgF,DewpointLowF,HumidityHigh,HumidityAvg,HumidityLow,PressureMaxIn,PressureMinIn,WindSpeedMaxMPH,WindSpeedAvgMPH,GustSpeedMaxMPH,PrecipitationSumIn
2013-12-1,50,46,39,48,42,31,96,85,72,30.47,30.00,6,2,12,0.00
2013-12-2,46,41,37,45,39,35,97,95,91,30.00,29.91,5,1,8,0.00
2013-12-3,48,41,34,39,37,32,95,86,62,29.96,29.83,12,3,15,0.01
2013-12-4,45,37,28,36,32,27,94,82,63,30.23,29.97,10,2,12,0.01
2013-12-5,56,47,28,55,45,27,97,94,86,30.24,29.99,4,1,9,0.01
2013-12-6,60,52,38,59,51,37,97,95,92,30.13,29.93,15,3,17,0.26
2013-12-7,41,37,32,37,32,21,95,80,60,30.47,30.06,10,4,14,0.08
2013-12-8,34,32,30,26,22,17,77,65,56,30.61,30.47,10,2,14,0.08
2013-12-9,48,40,32,47,39,26,97,94,75,30.48,29.89,11,3,19,0.50
2013-12-10,39,36,30,37,32,23,95,88,76,30.05,29.81,8,2,13,0.05
2013-12-11,34,32,29,27,23,19,82,70,60,30.29,30.06,13,5,22,0.08
2013-12-12,33,26,20,20,12,4,72,56,39,30.29,30.13,16,4,20,0.08
2013-12-13,33,29,24,22,17,14,83,61,49,30.36,30.06,17,6,24,0.00
2013-12-14,33,25,19,32,19,7,95,79,58,30.59,30.12,11,4,13,0.00
2013-12-15,53,39,32,52,35,24,97,88,67,30.09,29.36,17,6,23,0.69
2013-12-16,36,31,26,26,16,9,73,56,43,30.24,29.80,15,6,22,0.69
2013-12-17,41,27,14,40,21,10,96,79,56,30.29,29.88,10,2,13,0.16
2013-12-18,36,32,23,29,25,22,94,77,59,30.14,29.80,12,6,23,0.01
2013-12-19,49,41,34,38,32,25,78,70,63,30.16,30.02,13,5,22,0.01
2013-12-20,56,45,30,50,40,28,97,85,65,30.17,30.01,17,2,21,0.01
2013-12-21,58,56,52,56,52,50,94,87,79,30.05,29.96,14,5,20,0.00
2013-12-22,61,59,55,59,56,52,95,91,79,30.03,29.90,13,5,23,0.00
2013-12-23,61,47,38,56,46,37,97,94,83,30.08,29.95,10,2,14,0.36
2013-12-24,40,36,31,39,29,21,96,78,61,30.23,30.02,12,4,16,0.01
2013-12-25,31,22,15,23,12,8,89,65,54,30.59,30.23,10,3,21,0.01
2013-12-26,42,34,16,38,30,14,95,86,76,30.54,30.09,18,3,20,0.19
2013-12-27,37,35,32,27,25,22,77,67,58,30.33,30.25,11,5,18,0.19
2013-12-28,51,42,32,40,34,25,87,74,57,30.29,30.06,13,3,25,0.00
2013-12-29,56,47,42,55,43,37,97,86,73,30.10,29.34,18,3,25,0.93
2013-12-30,45,38,26,41,30,17,94,75,48,30.16,29.50,12,5,17,0.93
2013-12-31,30,26,21,22,16,10,73,66,59,30.22,30.07,10,4,19,0.00